createdAt,value
2023-04-02T00:02:20.766Z,7.90
2023-04-02T00:05:26.252Z,7.80
2023-04-02T00:07:58.272Z,7.80
2023-04-02T00:10:53.078Z,7.80
2023-04-02T00:13:32.836Z,7.80
2023-04-02T00:16:01.286Z,7.80
2023-04-02T00:18:28.454Z,7.80
2023-04-02T00:21:10.606Z,7.90
2023-04-02T00:23:42.703Z,7.80
2023-04-02T00:26:23.309Z,7.80
2023-04-02T00:28:51.612Z,7.80
2023-04-02T00:31:20.448Z,7.80
2023-04-02T00:33:49.714Z,7.70
2023-04-02T00:36:22.425Z,7.70
2023-04-02T00:38:49.449Z,7.70
2023-04-02T00:41:29.906Z,7.80
2023-04-02T00:43:59.784Z,7.70
2023-04-02T00:46:34.724Z,7.80
2023-04-02T00:49:09.933Z,7.70
2023-04-02T00:51:44.608Z,7.70
2023-04-02T00:54:16.065Z,7.60
2023-04-02T00:56:46.366Z,7.70
2023-04-02T00:59:35.831Z,7.60
2023-04-02T01:02:15.184Z,7.60
2023-04-02T01:04:42.348Z,7.60
2023-04-02T01:07:12.292Z,7.50
2023-04-02T01:09:42.985Z,7.50
2023-04-02T01:12:12.634Z,7.60
2023-04-02T01:14:52.446Z,7.60
2023-04-02T01:17:43.157Z,7.50
2023-04-02T01:20:44.796Z,7.50
2023-04-02T01:23:14.747Z,7.60
2023-04-02T01:25:44.033Z,7.50
2023-04-02T01:28:32.150Z,7.50
2023-04-02T01:31:02.526Z,7.50
2023-04-02T01:33:33.376Z,7.50
2023-04-02T01:36:14.814Z,7.50
2023-04-02T01:39:04.721Z,7.50
2023-04-02T01:42:05.513Z,7.50
2023-04-02T01:44:53.215Z,7.50
2023-04-02T01:47:34.582Z,7.50
2023-04-02T01:50:05.420Z,7.50
2023-04-02T01:52:56.263Z,7.50
2023-04-02T01:55:31.437Z,7.50
2023-04-02T01:58:01.407Z,7.50
2023-04-02T02:00:36.362Z,7.40
2023-04-02T02:03:05.584Z,7.40
2023-04-02T02:05:33.108Z,7.40
2023-04-02T02:08:01.484Z,7.40
2023-04-02T02:10:35.078Z,7.40
2023-04-02T02:13:02.250Z,7.40
2023-04-02T02:15:34.172Z,7.40
2023-04-02T02:18:06.013Z,7.40
2023-04-02T02:20:34.518Z,7.40
2023-04-02T02:23:04.070Z,7.40
2023-04-02T02:25:34.391Z,7.40
2023-04-02T02:28:23.854Z,7.40
2023-04-02T02:31:04.805Z,7.30
2023-04-02T02:33:39.206Z,7.30
2023-04-02T02:36:09.107Z,7.30
2023-04-02T02:38:57.092Z,7.30
2023-04-02T02:41:42.377Z,7.30
2023-04-02T02:44:09.315Z,7.30
2023-04-02T02:47:11.480Z,7.30
2023-04-02T02:49:43.432Z,7.30
2023-04-02T02:52:10.569Z,7.30
2023-04-02T02:54:41.580Z,7.30
2023-04-02T02:57:14.044Z,7.30
2023-04-02T02:59:42.606Z,7.30
2023-04-02T03:02:19.256Z,7.40
2023-04-02T03:04:49.681Z,7.30
2023-04-02T03:07:19.393Z,7.30
2023-04-02T03:10:09.552Z,7.30
2023-04-02T03:13:15.632Z,7.30
2023-04-02T03:15:54.216Z,7.30
2023-04-02T03:18:54.663Z,7.30
2023-04-02T03:21:24.371Z,7.30
2023-04-02T03:24:00.141Z,7.20
2023-04-02T03:26:30.154Z,7.20
2023-04-02T03:29:03.623Z,7.20
2023-04-02T03:31:38.647Z,7.20
2023-04-02T03:34:23.897Z,7.20
2023-04-02T03:37:00.392Z,7.20
2023-04-02T03:39:42.679Z,7.20
2023-04-02T03:42:26.186Z,7.30
2023-04-02T03:45:07.830Z,7.20
2023-04-02T03:47:54.481Z,7.20
2023-04-02T03:50:43.313Z,7.20
2023-04-02T03:53:11.992Z,7.20
2023-04-02T03:55:42.061Z,7.20
2023-04-02T03:58:49.853Z,7.20
2023-04-02T04:01:55.403Z,7.20
2023-04-02T04:04:25.548Z,7.20
2023-04-02T04:06:53.269Z,7.20
2023-04-02T04:09:26.443Z,7.20
2023-04-02T04:12:30.217Z,7.20
2023-04-02T04:15:17.056Z,7.10
2023-04-02T04:18:10.721Z,7.20
2023-04-02T04:20:57.427Z,7.20
2023-04-02T04:23:32.768Z,7.20
2023-04-02T04:26:09.784Z,7.20
2023-04-02T04:28:47.512Z,7.20
2023-04-02T04:31:26.756Z,7.20
2023-04-02T04:34:05.073Z,7.20
2023-04-02T04:36:54.513Z,7.20
2023-04-02T04:39:36.739Z,7.20
2023-04-02T04:42:05.170Z,7.30
2023-04-02T04:44:56.930Z,7.30
2023-04-02T04:47:32.311Z,7.30
2023-04-02T04:50:07.870Z,7.30
2023-04-02T04:52:38.751Z,7.30
2023-04-02T04:55:29.993Z,7.30
2023-04-02T04:58:11.957Z,7.30
2023-04-02T05:00:54.542Z,7.30
2023-04-02T05:03:27.584Z,7.30
2023-04-02T05:06:00.068Z,7.30
2023-04-02T05:08:33.551Z,7.30
2023-04-02T05:11:34.254Z,7.30
2023-04-02T05:14:26.851Z,7.30
2023-04-02T05:17:16.137Z,7.30
2023-04-02T05:20:10.008Z,7.30
2023-04-02T05:22:52.089Z,7.30
2023-04-02T05:25:33.044Z,7.30
2023-04-02T05:28:11.542Z,7.30
2023-04-02T05:31:03.643Z,7.30
2023-04-02T05:33:33.851Z,7.30
2023-04-02T05:36:08.719Z,7.30
2023-04-02T05:38:39.051Z,7.40
2023-04-02T05:41:24.478Z,7.30
2023-04-02T05:43:59.862Z,7.30
2023-04-02T05:46:32.908Z,7.40
2023-04-02T05:49:00.414Z,7.40
2023-04-02T05:51:50.548Z,7.40
2023-04-02T05:54:47.385Z,7.50
2023-04-02T05:57:23.153Z,7.50
2023-04-02T05:59:58.090Z,7.50
2023-04-02T06:02:32.339Z,7.50
2023-04-02T06:05:05.636Z,7.50
2023-04-02T06:07:42.048Z,7.50
2023-04-02T06:10:24.885Z,7.50
2023-04-02T06:12:58.303Z,7.60
2023-04-02T06:15:27.399Z,7.60
2023-04-02T06:18:08.316Z,7.60
2023-04-02T06:20:36.144Z,7.60
2023-04-02T06:23:10.127Z,7.60
2023-04-02T06:25:54.473Z,7.60
2023-04-02T06:28:38.160Z,7.60
2023-04-02T06:31:11.476Z,7.70
2023-04-02T06:33:38.533Z,7.80
2023-04-02T06:36:07.603Z,7.80
2023-04-02T06:38:36.569Z,7.80
2023-04-02T06:41:21.235Z,7.80
2023-04-02T06:44:07.574Z,7.90
2023-04-02T06:46:49.902Z,7.90
2023-04-02T06:49:31.091Z,7.90
2023-04-02T06:52:01.236Z,7.80
2023-04-02T06:54:28.442Z,7.90
2023-04-02T06:56:56.530Z,7.90
2023-04-02T06:59:24.227Z,7.90
2023-04-02T07:02:16.999Z,7.90
2023-04-02T07:04:44.162Z,8.00
2023-04-02T07:07:11.181Z,8.00
2023-04-02T07:09:38.160Z,8.00
2023-04-02T07:12:12.603Z,8.00
2023-04-02T07:14:53.680Z,8.10
2023-04-02T07:17:22.219Z,8.10
2023-04-02T07:19:49.906Z,8.20
2023-04-02T07:22:20.811Z,8.20
2023-04-02T07:24:48.015Z,8.20
2023-04-02T07:27:15.661Z,8.30
2023-04-02T07:29:43.179Z,8.30
2023-04-02T07:32:14.738Z,8.40
2023-04-02T07:34:42.144Z,8.30
2023-04-02T07:37:13.995Z,8.40
2023-04-02T07:40:10.881Z,8.40
2023-04-02T07:42:53.572Z,8.40
2023-04-02T07:45:20.664Z,8.50
2023-04-02T07:47:47.854Z,8.60
2023-04-02T07:50:15.101Z,8.70
2023-04-02T07:52:42.743Z,8.70
2023-04-02T07:55:14.579Z,8.70
2023-04-02T07:57:59.342Z,8.70
2023-04-02T08:00:28.558Z,8.80
2023-04-02T08:02:56.694Z,8.80
2023-04-02T08:05:23.953Z,8.80
2023-04-02T08:07:55.779Z,8.90
2023-04-02T08:10:23.436Z,9.00
2023-04-02T08:12:53.845Z,9.10
2023-04-02T08:15:20.889Z,9.10
2023-04-02T08:17:48.187Z,9.10
2023-04-02T08:20:22.465Z,9.10
2023-04-02T08:22:50.694Z,9.10
2023-04-02T08:25:18.135Z,9.10
2023-04-02T08:27:48.118Z,9.10
2023-04-02T08:30:16.114Z,9.20
2023-04-02T08:32:43.514Z,9.30
2023-04-02T08:35:13.249Z,9.30
2023-04-02T08:37:40.915Z,9.30
2023-04-02T08:40:13.637Z,9.30
2023-04-02T08:43:13.859Z,9.30
2023-04-02T08:45:49.350Z,9.30
2023-04-02T08:48:16.941Z,9.30
2023-04-02T08:50:45.092Z,9.30
2023-04-02T08:53:29.121Z,9.40
2023-04-02T08:56:22.426Z,9.40
2023-04-02T08:58:54.471Z,9.40
2023-04-02T09:01:59.975Z,9.40
2023-04-02T09:04:28.198Z,9.50
2023-04-02T09:06:57.429Z,9.40
2023-04-02T09:09:25.695Z,9.40
2023-04-02T09:12:04.697Z,9.30
2023-04-02T09:14:48.817Z,9.30
2023-04-02T09:17:19.149Z,9.30
2023-04-02T09:19:57.415Z,9.30
2023-04-02T09:22:30.338Z,9.30
2023-04-02T09:24:59.465Z,9.40
2023-04-02T09:27:29.925Z,9.30
2023-04-02T09:30:21.805Z,9.40
2023-04-02T09:32:50.736Z,9.50
2023-04-02T09:35:39.718Z,9.60
2023-04-02T09:38:23.071Z,9.70
2023-04-02T09:40:56.368Z,9.70
2023-04-02T09:43:36.882Z,9.80
2023-04-02T09:57:28.069Z,9.90
2023-04-02T10:00:41.662Z,10.40
2023-04-02T10:03:04.248Z,10.30
2023-04-02T10:05:40.670Z,10.30
2023-04-02T10:08:21.546Z,10.40
2023-04-02T10:10:52.744Z,10.70
2023-04-02T10:13:35.792Z,11.00
2023-04-02T10:16:18.169Z,11.30
2023-04-02T10:18:49.186Z,11.50
2023-04-02T10:21:27.947Z,11.60
2023-04-02T10:23:55.853Z,11.80
2023-04-02T10:26:48.479Z,11.90
2023-04-02T10:29:52.994Z,11.90
2023-04-02T10:32:52.546Z,11.80
2023-04-02T10:35:40.070Z,11.70
2023-04-02T10:38:43.513Z,11.50
2023-04-02T10:41:10.537Z,11.30
2023-04-02T10:44:20.306Z,11.10
2023-04-02T10:47:08.846Z,10.70
2023-04-02T10:49:52.250Z,10.40
2023-04-02T10:52:26.821Z,10.00
2023-04-02T10:55:06.853Z,9.60
2023-04-02T10:57:46.119Z,9.50
2023-04-02T11:00:15.941Z,9.40
2023-04-02T11:02:51.406Z,9.40
2023-04-02T11:05:44.119Z,9.40
2023-04-02T11:08:29.469Z,9.40
2023-04-02T11:11:27.722Z,9.50
2023-04-02T11:14:11.523Z,9.50
2023-04-02T11:16:42.536Z,9.50
2023-04-02T11:19:17.355Z,9.60
2023-04-02T11:22:06.784Z,9.60
2023-04-02T11:24:43.302Z,9.60
2023-04-02T11:27:10.483Z,9.60
2023-04-02T11:30:08.173Z,9.60
2023-04-02T11:32:49.321Z,9.60
2023-04-02T11:35:27.829Z,9.50
2023-04-02T11:37:57.392Z,9.50
2023-04-02T11:40:45.407Z,9.40
2023-04-02T11:43:34.282Z,9.40
2023-04-02T11:46:02.634Z,9.50
2023-04-02T11:48:33.888Z,9.60
2023-04-02T11:51:04.858Z,9.70
2023-04-02T11:53:34.735Z,9.70
2023-04-02T11:56:29.614Z,9.70
2023-04-02T11:59:14.364Z,9.60
2023-04-02T12:02:19.034Z,9.40
2023-04-02T12:04:56.688Z,9.30
2023-04-02T12:07:37.219Z,9.30
2023-04-02T12:10:20.418Z,9.30
2023-04-02T12:12:48.910Z,9.20
2023-04-02T12:15:45.707Z,9.10
2023-04-02T12:18:17.886Z,8.90
2023-04-02T12:20:51.224Z,8.90
2023-04-02T12:23:32.232Z,8.90
2023-04-02T12:26:01.843Z,8.90
2023-04-02T12:28:31.407Z,8.80
2023-04-02T12:31:18.158Z,8.70
2023-04-02T12:33:45.503Z,8.40
2023-04-02T12:36:15.071Z,8.40
2023-04-02T12:38:56.041Z,8.30
2023-04-02T12:41:30.637Z,8.50
2023-04-02T12:44:03.445Z,8.60
2023-04-02T12:46:34.124Z,8.60
2023-04-02T12:49:07.253Z,8.50
2023-04-02T12:51:37.456Z,8.30
2023-04-02T12:54:05.642Z,8.10
2023-04-02T12:56:33.005Z,8.00
2023-04-02T12:59:01.958Z,8.00
2023-04-02T13:01:32.128Z,8.00
2023-04-02T13:04:03.909Z,8.00
2023-04-02T13:06:31.112Z,8.10
2023-04-02T13:08:59.424Z,8.10
2023-04-02T13:11:44.855Z,8.20
2023-04-02T13:14:20.431Z,8.20
2023-04-02T13:16:48.872Z,8.20
2023-04-02T13:19:29.696Z,8.20
2023-04-02T13:21:59.840Z,8.10
2023-04-02T13:24:32.567Z,8.00
2023-04-02T13:27:02.931Z,8.10
2023-04-02T13:29:32.895Z,8.10
2023-04-02T13:32:06.868Z,8.10
2023-04-02T13:34:36.236Z,8.10
2023-04-02T13:37:03.960Z,8.10
2023-04-02T13:39:33.314Z,8.00
2023-04-02T13:42:04.089Z,7.90
2023-04-02T13:44:34.180Z,7.80
2023-04-02T13:47:01.477Z,7.50
2023-04-02T13:49:29.568Z,7.30
2023-04-02T13:52:05.156Z,7.30
2023-04-02T13:54:41.812Z,7.20
2023-04-02T13:57:09.324Z,7.30
2023-04-02T13:59:36.996Z,7.50
2023-04-02T14:02:14.842Z,7.60
2023-04-02T14:04:53.350Z,7.70
2023-04-02T14:07:35.538Z,7.90
2023-04-02T14:10:32.545Z,7.80
2023-04-02T14:13:11.982Z,7.70
2023-04-02T14:15:51.735Z,7.60
2023-04-02T14:18:39.623Z,7.40
2023-04-02T14:21:22.852Z,7.40
2023-04-02T14:24:26.243Z,7.30
2023-04-02T14:27:06.641Z,7.30
2023-04-02T14:30:12.680Z,7.20
2023-04-02T14:32:52.010Z,7.20
2023-04-02T14:35:27.720Z,7.30
2023-04-02T14:37:58.100Z,7.30
2023-04-02T14:40:50.320Z,7.30
2023-04-02T14:43:32.734Z,7.30
2023-04-02T14:46:08.444Z,7.30
2023-04-02T14:48:57.270Z,7.30
2023-04-02T14:51:39.232Z,7.50
2023-04-02T14:54:38.054Z,7.50
2023-04-02T14:57:07.272Z,7.50
2023-04-02T14:59:45.200Z,7.40
2023-04-02T15:02:28.777Z,7.30
2023-04-02T15:05:35.649Z,7.10
2023-04-02T15:08:24.168Z,7.00
2023-04-02T15:10:59.384Z,6.80
2023-04-02T15:13:45.654Z,6.80
2023-04-02T15:16:21.956Z,6.80
2023-04-02T15:19:06.147Z,6.80
2023-04-02T15:22:09.008Z,6.70
2023-04-02T15:25:02.299Z,6.70
2023-04-02T15:27:55.688Z,6.70
2023-04-02T15:30:30.826Z,6.70
2023-04-02T15:33:27.188Z,6.60
2023-04-02T15:36:28.545Z,6.60
2023-04-02T15:39:15.948Z,6.50
2023-04-02T15:41:54.473Z,6.50
2023-04-02T15:44:22.813Z,6.50
2023-04-02T15:47:14.575Z,6.40
2023-04-02T15:50:06.556Z,6.30
2023-04-02T15:52:45.932Z,6.10
2023-04-02T15:55:22.529Z,6.00
2023-04-02T15:58:22.103Z,6.00
2023-04-02T16:00:59.822Z,6.00
2023-04-02T16:04:18.043Z,6.00
2023-04-02T16:07:23.636Z,6.00
2023-04-02T16:10:11.989Z,5.90
2023-04-02T16:12:42.029Z,5.80
2023-04-02T16:15:23.836Z,5.80
2023-04-02T16:18:02.314Z,5.70
2023-04-02T16:20:35.047Z,5.60
2023-04-02T16:23:18.967Z,5.50
2023-04-02T16:25:56.483Z,5.50
2023-04-02T16:28:45.309Z,5.40
2023-04-02T16:31:40.925Z,5.40
2023-04-02T16:34:10.787Z,5.40
2023-04-02T16:36:59.201Z,5.30
2023-04-02T16:39:31.994Z,5.20
2023-04-02T16:42:28.440Z,5.10
2023-04-02T16:45:00.473Z,5.10
2023-04-02T16:47:43.135Z,5.00
2023-04-02T16:50:27.986Z,4.90
2023-04-02T16:53:08.829Z,4.80
2023-04-02T16:56:02.140Z,4.80
2023-04-02T16:59:12.825Z,4.70
2023-04-02T17:02:21.650Z,4.70
2023-04-02T17:05:02.375Z,4.70
2023-04-02T17:07:44.751Z,4.70
2023-04-02T17:10:23.786Z,4.60
2023-04-02T17:13:15.567Z,4.50
2023-04-02T17:15:45.397Z,4.50
2023-04-02T17:18:24.747Z,4.50
2023-04-02T17:20:52.086Z,4.40
2023-04-02T17:23:20.605Z,4.40
2023-04-02T17:25:58.030Z,4.40
2023-04-02T17:28:36.997Z,4.40
2023-04-02T17:31:23.421Z,4.30
2023-04-02T17:33:50.840Z,4.30
2023-04-02T17:36:39.145Z,4.30
2023-04-02T17:39:25.764Z,4.20
2023-04-02T17:41:56.223Z,4.20
2023-04-02T17:44:26.984Z,4.20
2023-04-02T17:47:19.618Z,4.20
2023-04-02T17:50:08.065Z,4.20
2023-04-02T17:52:53.459Z,4.20
2023-04-02T17:55:58.127Z,4.20
2023-04-02T17:58:33.980Z,4.10
2023-04-02T18:01:23.896Z,4.00
2023-04-02T18:04:17.971Z,4.00
2023-04-02T18:06:59.291Z,4.00
2023-04-02T18:09:46.685Z,3.90
2023-04-02T18:12:49.128Z,3.90
2023-04-02T18:15:38.719Z,3.90
2023-04-02T18:18:36.670Z,3.80
2023-04-02T18:21:17.109Z,3.80
2023-04-02T18:24:23.825Z,3.80
2023-04-02T18:27:12.654Z,3.80
2023-04-02T18:29:51.819Z,3.80
2023-04-02T18:32:27.874Z,3.80
2023-04-02T18:35:01.283Z,3.80
2023-04-02T18:37:53.876Z,3.80
2023-04-02T18:40:39.831Z,3.70
2023-04-02T18:43:29.593Z,3.70
2023-04-02T18:46:22.639Z,3.70
2023-04-02T18:49:15.907Z,3.70
2023-04-02T18:51:44.119Z,3.60
2023-04-02T18:54:22.567Z,3.60
2023-04-02T18:56:49.724Z,3.60
2023-04-02T18:59:30.558Z,3.60
2023-04-02T19:02:14.147Z,3.60
2023-04-02T19:04:49.916Z,3.50
2023-04-02T19:07:21.663Z,3.50
2023-04-02T19:09:51.840Z,3.50
2023-04-02T19:12:39.159Z,3.50
2023-04-02T19:15:18.881Z,3.40
2023-04-02T19:17:56.133Z,3.40
2023-04-02T19:20:34.932Z,3.40
2023-04-02T19:23:07.391Z,3.40
2023-04-02T19:25:37.830Z,3.30
2023-04-02T19:28:17.392Z,3.30
2023-04-02T19:31:16.014Z,3.40
2023-04-02T19:33:49.221Z,3.30
2023-04-02T19:36:47.417Z,3.30
2023-04-02T19:39:27.480Z,3.30
2023-04-02T19:42:08.194Z,3.30
2023-04-02T19:44:35.864Z,3.30
2023-04-02T19:47:02.922Z,3.30
2023-04-02T19:49:32.813Z,3.30
2023-04-02T19:51:59.764Z,3.30
2023-04-02T19:54:26.751Z,3.30
2023-04-02T19:56:53.837Z,3.30
2023-04-02T19:59:21.007Z,3.30
2023-04-02T20:01:48.216Z,3.30
2023-04-02T20:04:15.559Z,3.20
2023-04-02T20:06:42.761Z,3.20
2023-04-02T20:09:09.755Z,3.20
2023-04-02T20:11:38.102Z,3.20
2023-04-02T20:14:06.021Z,3.30
2023-04-02T20:16:34.448Z,3.30
2023-04-02T20:19:01.605Z,3.30
2023-04-02T20:21:29.616Z,3.30
2023-04-02T20:23:56.590Z,3.30
2023-04-02T20:26:23.663Z,3.30
2023-04-02T20:28:50.657Z,3.30
2023-04-02T20:31:18.917Z,3.30
2023-04-02T20:33:46.723Z,3.30
2023-04-02T20:36:16.398Z,3.40
2023-04-02T20:38:43.953Z,3.30
2023-04-02T20:41:11.013Z,3.30
2023-04-02T20:43:40.662Z,3.30
2023-04-02T20:46:10.106Z,3.30
2023-04-02T20:48:37.974Z,3.30
2023-04-02T20:51:07.488Z,3.30
2023-04-02T20:53:36.425Z,3.30
2023-04-02T20:56:07.831Z,3.20
2023-04-02T20:58:36.569Z,3.30
2023-04-02T21:01:24.260Z,3.20
2023-04-02T21:03:59.994Z,3.30
2023-04-02T21:06:30.652Z,3.20
2023-04-02T21:08:57.969Z,3.30
2023-04-02T21:11:26.354Z,3.30
2023-04-02T21:13:54.207Z,3.20
2023-04-02T21:16:24.047Z,3.30
2023-04-02T21:18:53.079Z,3.30
2023-04-02T21:21:22.905Z,3.30
2023-04-02T21:23:59.343Z,3.30
2023-04-02T21:26:27.848Z,3.20
2023-04-02T21:28:55.422Z,3.20
2023-04-02T21:31:28.322Z,3.20
2023-04-02T21:33:58.079Z,3.30
2023-04-02T21:36:27.869Z,3.20
2023-04-02T21:38:57.965Z,3.20
2023-04-02T21:41:27.673Z,3.20
2023-04-02T21:43:56.807Z,3.30
2023-04-02T21:46:27.209Z,3.20
2023-04-02T21:48:56.507Z,3.20
2023-04-02T21:51:31.722Z,3.10
2023-04-02T21:53:59.620Z,3.10
2023-04-02T21:56:32.229Z,3.10
2023-04-02T21:59:01.950Z,3.10
2023-04-02T22:01:31.589Z,3.10
2023-04-02T22:04:01.460Z,3.10
2023-04-02T22:06:30.533Z,3.10
2023-04-02T22:09:00.141Z,3.10
2023-04-02T22:11:31.362Z,3.10
2023-04-02T22:13:58.954Z,3.10
2023-04-02T22:16:28.532Z,3.10
2023-04-02T22:18:57.475Z,3.10
2023-04-02T22:21:25.630Z,3.10
2023-04-02T22:23:53.502Z,3.10
2023-04-02T22:26:23.004Z,3.10
2023-04-02T22:28:52.774Z,3.10
2023-04-02T22:31:23.624Z,3.10
2023-04-02T22:33:50.893Z,3.20
2023-04-02T22:36:19.491Z,3.20
2023-04-02T22:38:46.715Z,3.20
2023-04-02T22:41:22.067Z,3.20
2023-04-02T22:43:49.784Z,3.10
2023-04-02T22:46:19.095Z,3.10
2023-04-02T22:48:47.378Z,3.10
2023-04-02T22:51:16.648Z,3.10
2023-04-02T22:53:43.852Z,3.10
2023-04-02T22:56:14.099Z,3.10
2023-04-02T22:58:41.642Z,3.20
2023-04-02T23:01:18.507Z,3.10
2023-04-02T23:03:45.869Z,3.10
2023-04-02T23:06:15.030Z,3.10
2023-04-02T23:08:42.159Z,3.10
2023-04-02T23:11:17.328Z,3.10
2023-04-02T23:13:45.389Z,3.10
2023-04-02T23:16:14.521Z,3.10
2023-04-02T23:18:43.486Z,3.00
2023-04-02T23:21:10.918Z,3.10
2023-04-02T23:23:38.580Z,3.10
2023-04-02T23:26:17.627Z,3.20
2023-04-02T23:28:45.274Z,3.20
2023-04-02T23:31:18.622Z,3.20
2023-04-02T23:33:46.028Z,3.10
2023-04-02T23:36:22.088Z,3.10
2023-04-02T23:38:51.165Z,3.10
2023-04-02T23:41:18.173Z,3.20
2023-04-02T23:43:45.156Z,3.10
2023-04-02T23:46:12.254Z,3.10
2023-04-02T23:48:39.394Z,3.10
2023-04-02T23:51:07.084Z,3.10
2023-04-02T23:53:35.090Z,3.10
2023-04-02T23:56:02.104Z,3.10
2023-04-02T23:58:29.619Z,3.10
